Logansport, Indiana
Current Conditions -  °F | °C
As of 12:35 AM on Friday 31 Oct 2014 (Local Time) from KGGP Reporting Station
Overcast Overcast  
Wind Chill: 38°   Ceiling: 8500
Heat Index: 41°   Visibility: 10mi
Dew Point: 36°   Wind: 5mph
Humidity: 81%   Direction: 260°W
Pressure: 30.05"   Gusts: NA
Location:  40.75°N, 86.36°W
Report Text: KGGP 310435Z AUTO 26004KT 10SM SCT075 OVC085 05/02 A3005 RMK AO2
Loading
Personal Weather Stations






























Interactive Weather Map
Tropical Storm Tracking
New forecast layout! Learn more

10-Day Weather Forecast

Advertisements
Track Severe Weather on mobile